Time;durP1;ratioP1;P1;durP2;ratioP2;P2;SDS_P1;SDS_P2;PMS_P1;PMS_P2;Temp;Humidity;BMP_temperature;BMP_pressure;BME280_temperature;BME280_humidity;BME280_pressure;Samples;Min_cycle;Max_cycle;Signal;HPM_P1;HPM_P2
2022/11/29 00:01:15;;;;;;;2.97;2.00;;;19.40;1.00;;;;;;4805493;29;20058;-60
2022/11/29 00:03:42;;;;;;;3.55;1.65;;;19.30;1.00;;;;;;4805245;29;20053;-60
2022/11/29 00:06:13;;;;;;;6.43;2.00;;;19.30;1.00;;;;;;4805432;29;20125;-60
2022/11/29 00:08:40;;;;;;;4.90;2.78;;;19.30;1.00;;;;;;4805383;29;20058;-60
2022/11/29 00:11:10;;;;;;;3.50;2.20;;;19.30;1.00;;;;;;4805399;29;20050;-60
2022/11/29 00:13:37;;;;;;;3.63;2.30;;;19.20;1.00;;;;;;4805037;29;20054;-60
2022/11/29 00:16:09;;;;;;;5.57;2.22;;;19.20;1.00;;;;;;4805289;29;20275;-60
2022/11/29 00:18:36;;;;;;;3.22;1.83;;;19.20;1.00;;;;;;4805188;29;20122;-59
2022/11/29 00:21:07;;;;;;;3.20;1.65;;;19.20;1.00;;;;;;4805197;29;20107;-59
2022/11/29 00:23:34;;;;;;;5.10;2.25;;;19.20;1.00;;;;;;4805013;29;20103;-60
2022/11/29 00:26:03;;;;;;;4.65;2.20;;;19.10;1.00;;;;;;4805485;29;20058;-60
2022/11/29 00:28:30;;;;;;;3.40;2.17;;;19.10;1.00;;;;;;4805074;29;20039;-60
2022/11/29 00:30:57;;;;;;;9.30;2.13;;;19.10;1.00;;;;;;4805091;29;20130;-60
2022/11/29 00:33:24;;;;;;;4.47;2.40;;;19.10;1.00;;;;;;4804682;29;20080;-60
2022/11/29 00:35:51;;;;;;;4.47;2.25;;;19.00;1.00;;;;;;4804934;29;20055;-60
2022/11/29 00:38:17;;;;;;;4.20;2.20;;;19.00;1.00;;;;;;4804979;29;20596;-60
2022/11/29 00:40:50;;;;;;;4.18;1.77;;;19.00;1.00;;;;;;4804311;29;20521;-60
2022/11/29 00:43:16;;;;;;;2.58;1.55;;;19.00;1.00;;;;;;4804756;29;20050;-60
2022/11/29 00:45:43;;;;;;;3.20;2.40;;;19.00;1.00;;;;;;4804882;29;20507;-60
2022/11/29 00:48:10;;;;;;;3.40;2.10;;;18.90;1.00;;;;;;4804841;29;20111;-60
2022/11/29 00:50:36;;;;;;;2.90;2.10;;;18.90;1.00;;;;;;4804821;29;20051;-60
2022/11/29 00:53:03;;;;;;;5.47;2.42;;;18.90;1.00;;;;;;4804558;29;20047;-60
2022/11/29 00:55:30;;;;;;;5.75;2.65;;;18.90;1.00;;;;;;4804848;29;20076;-59
2022/11/29 00:57:57;;;;;;;4.25;2.95;;;18.80;1.00;;;;;;4804778;29;20404;-59
2022/11/29 01:00:23;;;;;;;4.03;2.65;;;18.80;1.00;;;;;;4804947;29;20055;-59
2022/11/29 01:02:50;;;;;;;3.90;2.08;;;18.80;1.00;;;;;;4804512;29;20137;-60
2022/11/29 01:05:17;;;;;;;3.63;2.17;;;18.80;1.00;;;;;;4805218;29;20073;-59
2022/11/29 01:07:43;;;;;;;4.78;2.38;;;18.80;1.00;;;;;;4804507;29;20133;-59
2022/11/29 01:10:10;;;;;;;3.85;1.90;;;18.70;1.00;;;;;;4804598;29;20053;-59
2022/11/29 01:12:38;;;;;;;2.42;1.77;;;18.70;1.00;;;;;;4804431;29;20145;-60
2022/11/29 01:15:06;;;;;;;3.58;2.10;;;18.70;1.00;;;;;;4804522;29;20054;-60
2022/11/29 01:17:37;;;;;;;3.25;2.35;;;18.70;1.00;;;;;;4804522;29;20555;-60
2022/11/29 01:20:06;;;;;;;2.88;2.13;;;18.70;1.00;;;;;;4804543;29;20043;-60
2022/11/29 01:22:34;;;;;;;3.83;2.15;;;18.60;1.00;;;;;;4804301;29;20074;-60
2022/11/29 01:25:01;;;;;;;3.70;2.20;;;18.60;1.00;;;;;;4804477;29;20407;-60
2022/11/29 01:27:28;;;;;;;3.05;2.25;;;18.60;1.00;;;;;;4804367;29;20051;-60
2022/11/29 01:29:55;;;;;;;4.53;2.20;;;18.50;1.00;;;;;;4804323;29;20054;-59
2022/11/29 01:32:22;;;;;;;3.30;2.33;;;18.50;1.00;;;;;;4804092;29;20104;-60
2022/11/29 01:34:49;;;;;;;3.22;2.35;;;18.50;1.00;;;;;;4804352;29;20452;-60
2022/11/29 01:37:16;;;;;;;3.42;2.20;;;18.50;1.00;;;;;;4804608;29;20162;-60
2022/11/29 01:39:42;;;;;;;4.00;2.25;;;18.50;1.00;;;;;;4804515;29;20045;-60
2022/11/29 01:42:11;;;;;;;2.67;1.92;;;18.50;1.00;;;;;;4804195;29;20096;-60
2022/11/29 01:44:38;;;;;;;5.38;2.47;;;18.50;1.00;;;;;;4804290;29;20488;-60
2022/11/29 01:47:04;;;;;;;2.63;1.77;;;18.50;1.00;;;;;;4804247;29;20082;-60
2022/11/29 01:49:34;;;;;;;2.40;2.03;;;18.50;1.00;;;;;;4803188;29;20074;-60
2022/11/29 01:52:21;;;;;;;3.25;2.25;;;18.40;1.00;;;;;;4805949;29;20057;-60
2022/11/29 01:54:51;;;;;;;3.67;2.40;;;18.40;1.00;;;;;;4807785;29;20507;-60
2022/11/29 01:57:19;;;;;;;4.50;2.83;;;18.40;1.00;;;;;;4807572;29;20039;-60
2022/11/29 01:59:49;;;;;;;5.03;2.40;;;18.40;1.00;;;;;;4807498;29;20115;-59
2022/11/29 02:02:35;;;;;;;2.67;2.10;;;18.40;1.00;;;;;;4807276;29;20074;-60
2022/11/29 02:05:03;;;;;;;3.53;1.95;;;18.40;1.00;;;;;;4807578;29;20046;-59
2022/11/29 02:07:30;;;;;;;2.63;2.20;;;18.40;1.00;;;;;;4807444;29;20388;-60
2022/11/29 02:09:57;;;;;;;5.05;2.40;;;18.40;1.00;;;;;;4807430;29;20511;-60
2022/11/29 02:12:53;;;;;;;4.53;2.40;;;18.40;1.00;;;;;;4807135;29;20138;-58
2022/11/29 02:15:29;;;;;;;3.72;1.88;;;18.30;1.00;;;;;;4807288;29;20142;-59
2022/11/29 02:18:05;;;;;;;4.82;2.38;;;18.30;1.00;;;;;;4807311;29;20095;-59
2022/11/29 02:21:00;;;;;;;4.30;2.33;;;18.30;1.00;;;;;;4807148;29;20053;-59
2022/11/29 02:23:57;;;;;;;3.08;2.35;;;18.30;1.00;;;;;;4807076;29;20089;-59
2022/11/29 02:26:46;;;;;;;2.90;2.05;;;18.30;1.00;;;;;;4807117;29;20555;-59
2022/11/29 02:29:43;;;;;;;4.30;2.70;;;18.30;1.00;;;;;;4807204;29;20051;-59
2022/11/29 02:32:48;;;;;;;2.33;1.80;;;18.20;1.00;;;;;;4806967;29;20129;-59
2022/11/29 02:35:30;;;;;;;4.10;2.72;;;18.20;1.00;;;;;;4807036;29;20047;-60
2022/11/29 02:38:09;;;;;;;3.72;1.90;;;18.20;1.00;;;;;;4806970;29;20039;-60
2022/11/29 02:41:03;;;;;;;3.88;2.30;;;18.20;1.00;;;;;;4806918;29;20050;-60
2022/11/29 02:43:56;;;;;;;4.95;1.90;;;18.20;1.00;;;;;;4806572;29;20058;-59
2022/11/29 02:46:47;;;;;;;3.72;2.08;;;18.20;1.00;;;;;;4806788;29;20179;-59
2022/11/29 02:49:23;;;;;;;3.78;2.25;;;18.20;1.00;;;;;;4806865;29;20043;-60
2022/11/29 02:52:03;;;;;;;3.92;2.38;;;18.10;1.00;;;;;;4806684;29;20554;-60
2022/11/29 02:55:08;;;;;;;3.30;2.10;;;18.10;1.00;;;;;;4806550;29;20047;-59
2022/11/29 02:57:46;;;;;;;3.22;1.88;;;18.10;1.00;;;;;;4795430;29;20526;-60
2022/11/29 03:00:17;;;;;;;3.78;2.28;;;18.10;1.00;;;;;;4806515;29;20047;-60
2022/11/29 03:03:11;;;;;;;2.97;2.15;;;18.00;1.00;;;;;;4806051;29;20047;-59
2022/11/29 03:05:46;;;;;;;3.58;2.30;;;18.00;1.00;;;;;;4806493;29;20053;-59
2022/11/29 03:08:24;;;;;;;4.28;3.03;;;18.10;1.00;;;;;;4806433;29;20515;-60
2022/11/29 03:11:16;;;;;;;2.75;2.33;;;18.00;1.00;;;;;;4806432;29;20055;-59
2022/11/29 03:14:07;;;;;;;4.53;2.83;;;18.00;1.00;;;;;;4806168;29;20058;-59
2022/11/29 03:16:37;;;;;;;4.13;1.90;;;18.00;1.00;;;;;;4806251;29;20055;-59
2022/11/29 03:19:21;;;;;;;6.00;2.58;;;18.00;1.00;;;;;;4806379;29;20047;-59
2022/11/29 03:21:58;;;;;;;3.50;1.60;;;17.90;1.00;;;;;;4806246;29;20095;-60
2022/11/29 03:24:54;;;;;;;3.85;2.17;;;18.00;1.00;;;;;;4806016;29;20074;-59
2022/11/29 03:27:45;;;;;;;3.83;2.42;;;17.90;1.00;;;;;;4817053;24;20054;-57
2022/11/29 03:30:15;;;;;;;4.05;2.58;;;17.90;1.00;;;;;;4805441;29;20567;-57
2022/11/29 03:33:08;;;;;;;2.72;1.98;;;17.90;1.00;;;;;;4805513;29;20051;-57
2022/11/29 03:36:14;;;;;;;2.72;1.98;;;17.90;1.00;;;;;;4810970;29;20057;-57
2022/11/29 03:38:46;;;;;;;3.80;2.33;;;17.90;1.00;;;;;;4808852;29;20503;-57
2022/11/29 03:41:44;;;;;;;2.78;1.55;;;17.90;1.00;;;;;;4808438;29;20506;-57
2022/11/29 03:44:17;;;;;;;4.35;2.13;;;17.80;1.00;;;;;;4816385;29;20058;-57
2022/11/29 03:46:55;;;;;;;3.35;2.13;;;17.80;1.00;;;;;;4823985;29;20530;-57
2022/11/29 03:49:48;;;;;;;2.97;2.13;;;17.80;1.00;;;;;;4823972;29;20039;-57
2022/11/29 03:52:30;;;;;;;4.20;2.55;;;17.80;1.00;;;;;;4817052;29;20051;-56
2022/11/29 03:55:12;;;;;;;2.90;2.13;;;17.80;1.00;;;;;;4823933;29;20121;-57
2022/11/29 03:58:07;;;;;;;5.03;2.30;;;17.70;1.00;;;;;;4823734;29;20077;-57
2022/11/29 04:00:47;;;;;;;2.25;1.70;;;17.70;1.00;;;;;;4822109;29;20491;-58
2022/11/29 04:04:06;;;;;;;3.47;2.00;;;17.70;1.00;;;;;;4815450;29;20046;-58
2022/11/29 04:07:03;;;;;;;2.85;2.08;;;17.70;1.00;;;;;;4823703;29;20047;-57
2022/11/29 04:09:59;;;;;;;3.25;2.20;;;17.70;1.00;;;;;;4823749;29;20054;-57
2022/11/29 04:12:54;;;;;;;4.28;2.42;;;17.70;1.00;;;;;;4823320;29;20110;-59
2022/11/29 04:15:58;;;;;;;4.55;2.50;;;17.60;1.00;;;;;;4822713;29;20427;-56
2022/11/29 04:18:35;;;;;;;4.72;2.75;;;17.60;1.00;;;;;;4822864;29;20047;-59
2022/11/29 04:21:26;;;;;;;3.60;2.10;;;17.60;1.00;;;;;;4823562;29;20103;-59
2022/11/29 04:23:56;;;;;;;2.95;1.77;;;17.60;1.00;;;;;;4823389;29;20107;-59
2022/11/29 04:26:41;;;;;;;3.83;2.13;;;17.60;1.00;;;;;;4823482;29;20069;-58
2022/11/29 04:29:16;;;;;;;2.35;1.63;;;17.60;1.00;;;;;;4823354;29;20043;-59
2022/11/29 04:32:11;;;;;;;3.75;2.10;;;17.50;1.00;;;;;;4807275;29;20058;-59
2022/11/29 04:35:06;;;;;;;2.80;1.80;;;17.60;1.00;;;;;;4823362;29;20048;-59
2022/11/29 04:38:03;;;;;;;2.08;1.40;;;17.50;1.00;;;;;;4823275;29;20053;-58
2022/11/29 04:41:01;;;;;;;3.95;1.67;;;17.50;1.00;;;;;;4823350;29;20563;-58
2022/11/29 04:43:55;;;;;;;2.60;1.70;;;17.50;1.00;;;;;;4823038;29;20081;-58
2022/11/29 04:46:46;;;;;;;3.45;1.60;;;17.50;1.00;;;;;;4823123;29;20117;-58
2022/11/29 04:49:25;;;;;;;2.42;1.40;;;17.50;1.00;;;;;;4823279;29;20049;-57
2022/11/29 04:52:16;;;;;;;2.40;1.60;;;17.50;1.00;;;;;;4823173;29;20117;-57
2022/11/29 04:54:55;;;;;;;4.95;1.85;;;17.40;1.00;;;;;;4823136;29;20110;-58
2022/11/29 04:57:31;;;;;;;3.33;1.95;;;17.40;1.00;;;;;;4822949;29;20057;-58
2022/11/29 05:00:18;;;;;;;3.63;2.03;;;17.40;1.00;;;;;;4823185;29;20072;-58
2022/11/29 05:02:58;;;;;;;3.22;1.77;;;17.40;1.00;;;;;;4822798;29;20078;-58
2022/11/29 05:05:49;;;;;;;3.28;1.58;;;17.30;1.00;;;;;;4823055;29;20046;-58
2022/11/29 05:08:35;;;;;;;3.25;1.60;;;17.30;1.00;;;;;;4823155;29;20483;-58
2022/11/29 05:11:36;;;;;;;4.28;1.80;;;17.30;1.00;;;;;;4813099;29;20046;-58
2022/11/29 05:14:30;;;;;;;3.30;1.88;;;17.30;1.00;;;;;;4811125;29;20093;-58
2022/11/29 05:17:50;;;;;;;3.22;2.00;;;17.30;1.00;;;;;;4816141;29;20050;-58
2022/11/29 05:20:45;;;;;;;7.03;1.80;;;17.30;1.00;;;;;;4766399;30;20079;-58
2022/11/29 05:23:33;;;;;;;5.63;1.83;;;17.20;1.00;;;;;;4807116;29;20141;-59
2022/11/29 05:26:32;;;;;;;22.95;2.25;;;17.20;1.00;;;;;;4813054;29;20047;-58
2022/11/29 05:29:15;;;;;;;4.88;1.95;;;17.20;1.00;;;;;;4821829;29;20103;-58
2022/11/29 05:32:00;;;;;;;9.23;2.22;;;17.20;1.00;;;;;;4826148;29;20058;-58
2022/11/29 05:34:45;;;;;;;8.20;3.03;;;17.20;1.00;;;;;;4825843;29;20547;-58
2022/11/29 05:37:41;;;;;;;4.05;1.80;;;17.20;1.00;;;;;;4809710;29;20089;-57
2022/11/29 05:40:21;;;;;;;3.90;1.88;;;17.20;1.00;;;;;;4826089;29;20120;-58
2022/11/29 05:43:22;;;;;;;6.78;2.47;;;17.20;1.00;;;;;;4825761;29;20550;-58
2022/11/29 05:46:05;;;;;;;6.30;2.28;;;17.20;1.00;;;;;;4811196;29;20141;-58
2022/11/29 05:48:57;;;;;;;3.70;1.80;;;17.10;1.00;;;;;;4825949;29;20054;-58
2022/11/29 05:51:43;;;;;;;8.73;2.33;;;17.10;1.00;;;;;;4815706;29;20709;-58
2022/11/29 05:54:28;;;;;;;3.40;1.85;;;17.10;1.00;;;;;;4808331;29;20078;-58
2022/11/29 05:57:12;;;;;;;2.58;1.50;;;17.10;1.00;;;;;;4813455;29;20076;-58
2022/11/29 05:59:41;;;;;;;3.25;2.15;;;17.10;1.00;;;;;;4825771;29;20046;-58
2022/11/29 06:02:14;;;;;;;5.32;2.17;;;17.10;1.00;;;;;;4809499;29;20107;-58
2022/11/29 06:04:44;;;;;;;3.67;1.77;;;17.10;1.00;;;;;;4825664;29;20070;-58
2022/11/29 06:07:19;;;;;;;3.85;1.52;;;17.00;1.00;;;;;;4825544;29;20069;-58
2022/11/29 06:10:00;;;;;;;4.25;1.88;;;17.00;1.00;;;;;;4825485;29;20559;-58
2022/11/29 06:12:30;;;;;;;2.95;1.58;;;17.00;1.00;;;;;;4825327;29;20117;-58
2022/11/29 06:15:03;;;;;;;4.55;2.70;;;17.00;1.00;;;;;;4825428;29;20526;-57
2022/11/29 06:17:36;;;;;;;4.38;2.47;;;17.00;1.00;;;;;;4825416;29;20495;-57
2022/11/29 06:20:26;;;;;;;5.88;2.08;;;16.90;1.00;;;;;;4825363;29;20046;-58
2022/11/29 06:23:27;;;;;;;4.43;1.65;;;17.00;1.00;;;;;;4825099;29;20046;-58
2022/11/29 06:26:10;;;;;;;4.40;2.05;;;17.00;1.00;;;;;;4825686;29;20039;-58
2022/11/29 06:28:56;;;;;;;7.25;2.05;;;16.90;1.00;;;;;;4825057;29;20054;-58
2022/11/29 06:31:28;;;;;;;5.57;1.80;;;16.90;1.00;;;;;;4825240;29;20054;-58
2022/11/29 06:34:23;;;;;;;4.13;2.28;;;16.90;1.00;;;;;;4824856;29;20090;-58
2022/11/29 06:37:03;;;;;;;2.00;1.45;;;16.90;1.00;;;;;;4825072;29;20133;-59
2022/11/29 06:39:30;;;;;;;6.10;1.75;;;16.90;1.00;;;;;;4824183;29;20138;-58
2022/11/29 06:41:57;;;;;;;4.20;2.10;;;16.80;1.00;;;;;;4824977;29;20049;-59
2022/11/29 06:44:24;;;;;;;2.67;1.67;;;16.90;1.00;;;;;;4824800;29;20085;-58
2022/11/29 06:47:01;;;;;;;4.45;1.92;;;16.90;1.00;;;;;;4825350;29;20518;-58
2022/11/29 06:49:40;;;;;;;3.40;1.48;;;16.80;1.00;;;;;;4824924;29;20502;-58
2022/11/29 06:52:45;;;;;;;8.45;1.77;;;16.80;1.00;;;;;;4824896;29;20506;-58
2022/11/29 06:55:46;;;;;;;3.30;1.90;;;16.80;1.00;;;;;;4824818;29;20499;-58
2022/11/29 06:58:34;;;;;;;2.97;1.80;;;16.80;1.00;;;;;;4824572;29;20125;-58
2022/11/29 07:01:18;;;;;;;5.03;1.88;;;16.80;1.00;;;;;;4824773;29;20514;-58
2022/11/29 07:04:04;;;;;;;;;;;16.70;1.00;;;;;;4824750;29;20050;-58
2022/11/29 07:06:33;;;;;;;3.42;2.05;;;16.70;1.00;;;;;;4824453;29;19925;-58
2022/11/29 07:09:27;;;;;;;3.13;1.77;;;16.70;1.00;;;;;;4824409;29;20057;-57
2022/11/29 07:11:54;;;;;;;2.95;1.63;;;16.70;1.00;;;;;;4822686;29;20363;-57
2022/11/29 07:14:21;;;;;;;7.28;1.98;;;16.70;1.00;;;;;;4824218;29;20089;-57
2022/11/29 07:17:03;;;;;;;4.00;1.80;;;16.70;1.00;;;;;;4824450;29;20046;-57
2022/11/29 07:19:46;;;;;;;7.18;2.45;;;16.60;1.00;;;;;;4824430;29;20046;-58
2022/11/29 07:22:41;;;;;;;3.67;1.75;;;16.60;1.00;;;;;;4824241;29;20057;-58
2022/11/29 07:25:52;;;;;;;6.45;1.98;;;16.60;1.00;;;;;;4824038;29;20125;-58
2022/11/29 07:28:30;;;;;;;3.10;2.08;;;16.60;1.00;;;;;;4822903;29;20141;-58
2022/11/29 07:31:18;;;;;;;6.45;1.95;;;16.60;1.00;;;;;;4821677;29;20053;-58
2022/11/29 07:33:57;;;;;;;4.25;1.73;;;16.60;1.00;;;;;;4819167;29;20499;-58
2022/11/29 07:36:52;;;;;;;5.13;2.30;;;16.60;1.00;;;;;;4818080;29;20050;-58
2022/11/29 07:39:37;;;;;;;6.47;2.03;;;16.60;1.00;;;;;;4801811;29;20046;-58
2022/11/29 07:42:39;;;;;;;3.42;1.65;;;16.60;1.00;;;;;;4822742;29;20486;-57
2022/11/29 07:45:31;;;;;;;3.65;2.30;;;16.60;1.00;;;;;;4809454;29;20141;-58
2022/11/29 07:47:58;;;;;;;4.63;2.05;;;16.60;1.00;;;;;;4824084;29;20074;-58
2022/11/29 07:50:26;;;;;;;3.45;1.80;;;16.50;1.00;;;;;;4823988;29;20062;-58
2022/11/29 07:52:53;;;;;;;7.05;2.05;;;16.50;1.00;;;;;;4823453;29;20136;-58
2022/11/29 07:55:22;;;;;;;3.53;1.65;;;16.50;1.00;;;;;;4823827;29;20047;-58
2022/11/29 07:57:50;;;;;;;6.30;2.47;;;16.50;1.00;;;;;;4823842;29;20050;-58
2022/11/29 08:00:18;;;;;;;4.55;2.50;;;16.50;1.00;;;;;;4823589;29;20129;-58
2022/11/29 08:02:45;;;;;;;3.63;1.98;;;16.50;1.00;;;;;;4823489;29;20066;-58
2022/11/29 08:05:12;;;;;;;4.30;2.20;;;16.40;1.00;;;;;;4823767;29;20043;-58
2022/11/29 08:07:40;;;;;;;4.43;2.65;;;16.40;1.00;;;;;;4823689;29;20055;-58
2022/11/29 08:10:10;;;;;;;3.13;1.80;;;16.50;1.00;;;;;;4807123;29;20078;-57
2022/11/29 08:12:42;;;;;;;3.92;1.90;;;16.40;1.00;;;;;;4823447;29;20084;-58
2022/11/29 08:15:10;;;;;;;3.60;1.83;;;16.40;1.00;;;;;;4823647;29;20054;-58
2022/11/29 08:17:37;;;;;;;4.93;2.45;;;16.40;1.00;;;;;;4823433;29;20107;-58
2022/11/29 08:20:05;;;;;;;3.65;1.45;;;16.40;1.00;;;;;;4823504;29;20046;-58
2022/11/29 08:22:35;;;;;;;4.82;2.17;;;16.40;1.00;;;;;;4823227;29;20123;-58
2022/11/29 08:25:03;;;;;;;4.60;2.40;;;16.40;1.00;;;;;;4823361;29;20056;-58
2022/11/29 08:27:30;;;;;;;4.63;2.47;;;16.40;1.00;;;;;;4823258;29;20081;-57
2022/11/29 08:29:57;;;;;;;2.85;1.52;;;16.40;1.00;;;;;;4823428;29;20133;-57
2022/11/29 08:32:26;;;;;;;4.45;1.90;;;16.30;1.00;;;;;;4823300;29;20054;-58
2022/11/29 08:34:53;;;;;;;5.25;1.98;;;16.30;1.00;;;;;;4823657;29;20055;-58
2022/11/29 08:37:19;;;;;;;6.18;2.10;;;16.30;1.00;;;;;;4823242;29;20077;-58
2022/11/29 08:39:46;;;;;;;5.93;2.10;;;16.30;1.00;;;;;;4823218;29;20050;-58
2022/11/29 08:42:13;;;;;;;3.60;1.60;;;16.30;1.00;;;;;;4822980;29;20499;-58
2022/11/29 08:44:39;;;;;;;4.15;2.20;;;16.30;1.00;;;;;;4823374;29;20480;-58
2022/11/29 08:50:02;;;;;;;4.35;1.90;;;16.30;1.00;;;;;;4823173;29;20054;-58
2022/11/29 08:55:18;;;;;;;4.10;2.30;;;16.30;1.00;;;;;;4822923;29;20511;-58
2022/11/29 08:57:46;;;;;;;6.40;2.10;;;16.30;1.00;;;;;;4822778;29;20047;-58
2022/11/29 09:00:14;;;;;;;3.05;1.90;;;16.20;1.00;;;;;;4822980;29;20050;-58
2022/11/29 09:02:40;;;;;;;4.55;2.25;;;16.20;1.00;;;;;;4822146;29;20099;-58
2022/11/29 09:05:10;;;;;;;3.88;2.05;;;16.20;1.00;;;;;;4823137;29;20080;-58
2022/11/29 09:07:37;;;;;;;4.03;1.95;;;16.20;1.00;;;;;;4822875;29;20099;-58
2022/11/29 09:10:07;;;;;;;3.63;1.70;;;16.20;1.00;;;;;;4822900;29;20052;-58
2022/11/29 09:12:35;;;;;;;3.20;2.00;;;16.20;1.00;;;;;;4822519;29;20415;-58
2022/11/29 09:15:04;;;;;;;4.57;1.92;;;16.20;1.00;;;;;;4822764;29;20515;-58
2022/11/29 09:17:31;;;;;;;4.35;1.92;;;16.20;1.00;;;;;;4822918;29;20115;-58
2022/11/29 09:19:58;;;;;;;5.20;2.10;;;16.20;1.00;;;;;;4822944;29;20425;-58
2022/11/29 09:22:25;;;;;;;3.83;1.95;;;16.20;1.00;;;;;;4822613;29;20077;-58
2022/11/29 09:24:51;;;;;;;4.82;1.88;;;16.20;1.00;;;;;;4822635;29;20414;-58
2022/11/29 09:27:18;;;;;;;5.70;2.28;;;16.20;1.00;;;;;;4806159;29;20081;-58
2022/11/29 09:29:45;;;;;;;3.65;1.85;;;16.20;1.00;;;;;;4822715;29;20051;-58
2022/11/29 09:32:11;;;;;;;5.93;1.77;;;16.20;1.00;;;;;;4822652;29;20081;-58
2022/11/29 09:34:38;;;;;;;4.38;2.00;;;16.20;1.00;;;;;;4822598;29;20129;-58
2022/11/29 09:37:05;;;;;;;4.63;1.98;;;16.20;1.00;;;;;;4822573;29;20459;-58
2022/11/29 09:39:32;;;;;;;5.68;2.20;;;16.20;1.00;;;;;;4822623;29;20081;-58
2022/11/29 09:42:17;;;;;;;4.03;1.75;;;16.20;1.00;;;;;;4822531;29;20046;-58
2022/11/29 09:44:50;;;;;;;4.93;1.40;;;16.20;1.00;;;;;;4822740;29;20112;-58
2022/11/29 09:47:41;;;;;;;4.60;2.00;;;16.20;1.00;;;;;;4806243;29;20107;-58
2022/11/29 09:50:24;;;;;;;4.55;1.95;;;16.20;1.00;;;;;;4822418;29;20061;-59
2022/11/29 09:53:16;;;;;;;3.80;1.50;;;16.20;1.00;;;;;;4822318;29;20050;-58
2022/11/29 09:56:15;;;;;;;2.22;1.35;;;16.20;1.00;;;;;;4822497;29;20054;-58
2022/11/29 09:59:12;;;;;;;3.83;1.60;;;16.20;1.00;;;;;;4805925;29;20047;-58
2022/11/29 10:01:45;;;;;;;6.90;2.30;;;16.20;1.00;;;;;;4822343;29;20053;-58
2022/11/29 10:04:20;;;;;;;3.90;1.52;;;16.20;1.00;;;;;;4822181;29;20047;-59
2022/11/29 10:07:20;;;;;;;5.47;1.90;;;16.20;1.00;;;;;;4822210;29;20038;-58
2022/11/29 10:10:02;;;;;;;2.58;1.40;;;16.30;1.00;;;;;;4822343;29;20050;-58
2022/11/29 10:12:45;;;;;;;8.23;2.28;;;16.30;1.00;;;;;;4822166;29;20116;-58
2022/11/29 10:15:20;;;;;;;3.67;1.35;;;16.30;1.00;;;;;;4825333;29;20503;-58
2022/11/29 10:18:15;;;;;;;5.80;1.23;;;16.30;1.00;;;;;;4825306;29;20124;-58
2022/11/29 10:20:45;;;;;;;4.20;1.80;;;16.30;1.00;;;;;;4825308;29;20129;-58
2022/11/29 10:23:35;;;;;;;2.67;1.52;;;16.30;1.00;;;;;;4825117;29;20046;-58
2022/11/29 10:26:06;;;;;;;5.28;1.70;;;16.30;1.00;;;;;;4825169;29;20047;-58
2022/11/29 10:28:36;;;;;;;3.08;1.17;;;16.30;1.00;;;;;;4825222;29;20081;-58
2022/11/29 10:31:34;;;;;;;3.78;1.60;;;16.30;1.00;;;;;;4825126;29;20050;-58
2022/11/29 10:34:11;;;;;;;3.17;1.40;;;16.30;1.00;;;;;;4824860;29;20050;-58
2022/11/29 10:36:43;;;;;;;3.40;1.30;;;16.30;1.00;;;;;;4825123;29;20050;-58
2022/11/29 10:39:27;;;;;;;3.92;1.55;;;16.30;1.00;;;;;;4824950;29;20129;-58
2022/11/29 10:41:58;;;;;;;2.25;1.10;;;16.30;1.00;;;;;;4824957;29;20046;-58
2022/11/29 10:44:26;;;;;;;3.13;1.20;;;16.30;1.00;;;;;;4824755;29;20045;-58
2022/11/29 10:46:54;;;;;;;4.70;1.60;;;16.30;1.00;;;;;;4824821;29;20048;-58
2022/11/29 10:49:26;;;;;;;3.97;1.67;;;16.30;1.00;;;;;;4824869;29;20502;-58
2022/11/29 10:51:53;;;;;;;4.05;1.45;;;16.40;1.00;;;;;;4824761;29;20058;-58
2022/11/29 10:54:37;;;;;;;4.00;1.35;;;16.40;1.00;;;;;;4824640;29;20498;-58
2022/11/29 10:57:12;;;;;;;2.80;1.42;;;16.40;1.00;;;;;;4824585;29;20115;-57
2022/11/29 10:59:39;;;;;;;3.85;1.38;;;16.40;1.00;;;;;;4824738;29;20046;-58
2022/11/29 11:02:19;;;;;;;4.20;1.20;;;16.40;1.00;;;;;;4824566;29;20384;-58
2022/11/29 11:04:46;;;;;;;2.95;1.45;;;16.40;1.00;;;;;;4824686;29;20077;-58
2022/11/29 11:07:40;;;;;;;5.32;1.50;;;16.40;1.00;;;;;;4824562;29;20135;-58
2022/11/29 11:10:25;;;;;;;5.93;1.20;;;16.40;1.00;;;;;;4822847;29;20418;-57
2022/11/29 11:13:05;;;;;;;3.72;1.35;;;16.40;1.00;;;;;;4824426;29;20130;-58
2022/11/29 11:15:33;;;;;;;2.40;1.13;;;16.40;1.00;;;;;;4808353;29;20129;-58
2022/11/29 11:18:03;;;;;;;4.22;1.40;;;16.40;1.00;;;;;;4824381;29;20050;-57
2022/11/29 11:20:40;;;;;;;3.72;1.25;;;16.40;1.00;;;;;;4824301;29;20554;-58
2022/11/29 11:23:23;;;;;;;4.50;1.25;;;16.40;1.00;;;;;;4824231;29;20665;-58
2022/11/29 11:26:08;;;;;;;3.08;1.20;;;16.40;1.00;;;;;;4823791;29;20121;-58
2022/11/29 11:28:51;;;;;;;1.73;1.10;;;16.40;1.00;;;;;;4823985;29;20396;-58
2022/11/29 11:31:33;;;;;;;2.05;1.10;;;16.40;1.00;;;;;;4824109;29;20495;-58
2022/11/29 11:34:26;;;;;;;5.82;2.03;;;16.40;1.00;;;;;;4824131;29;20045;-58
2022/11/29 11:37:13;;;;;;;4.57;1.23;;;16.40;1.00;;;;;;4824098;29;20102;-58
2022/11/29 11:39:41;;;;;;;2.95;1.30;;;16.40;1.00;;;;;;4824153;29;20129;-58
2022/11/29 11:45:21;;;;;;;6.65;1.23;;;16.40;1.00;;;;;;4824014;29;20432;-57
2022/11/29 11:47:55;;;;;;;2.47;1.20;;;16.40;1.00;;;;;;4823762;29;20107;-57
2022/11/29 11:50:33;;;;;;;6.65;1.35;;;16.40;1.00;;;;;;4807510;29;20054;-58
2022/11/29 11:53:27;;;;;;;3.53;1.05;;;16.40;1.00;;;;;;4823830;29;20051;-58
2022/11/29 11:56:07;;;;;;;2.88;1.42;;;16.40;1.00;;;;;;4823754;29;20555;-58
2022/11/29 11:58:46;;;;;;;4.22;1.52;;;16.40;1.00;;;;;;4823784;29;20121;-58
2022/11/29 12:01:24;;;;;;;3.00;1.08;;;16.40;1.00;;;;;;4823686;29;20081;-58
2022/11/29 12:04:03;;;;;;;3.40;1.00;;;16.40;1.00;;;;;;4823376;29;20046;-58
2022/11/29 12:06:50;;;;;;;4.25;0.90;;;16.40;1.00;;;;;;4823745;29;20043;-58
2022/11/29 12:09:44;;;;;;;3.22;1.25;;;16.40;1.00;;;;;;4823660;29;20062;-58
2022/11/29 12:12:11;;;;;;;3.15;1.15;;;16.40;1.00;;;;;;4823382;29;20047;-57
2022/11/29 12:14:53;;;;;;;2.58;1.13;;;16.40;1.00;;;;;;4823614;29;20046;-58
2022/11/29 12:17:28;;;;;;;3.35;0.98;;;16.40;1.00;;;;;;4823523;29;20142;-58
2022/11/29 12:20:19;;;;;;;1.42;0.70;;;16.30;1.00;;;;;;4823572;29;20111;-58
2022/11/29 12:22:52;;;;;;;3.25;1.23;;;16.30;1.00;;;;;;4823255;29;20511;-58
2022/11/29 12:25:33;;;;;;;3.65;1.05;;;16.30;1.00;;;;;;4823421;29;20111;-58
2022/11/29 12:28:00;;;;;;;3.33;1.38;;;16.30;1.00;;;;;;4823479;29;20043;-58
2022/11/29 12:30:26;;;;;;;1.65;0.82;;;16.30;1.00;;;;;;4823350;29;20103;-58
2022/11/29 12:33:18;;;;;;;2.60;0.90;;;16.30;1.00;;;;;;4823098;29;20511;-58
2022/11/29 12:36:04;;;;;;;1.98;0.75;;;16.30;1.00;;;;;;4822569;29;20054;-58
2022/11/29 12:38:52;;;;;;;5.15;0.90;;;16.30;1.00;;;;;;4823349;29;20058;-57
2022/11/29 12:41:34;;;;;;;3.13;0.90;;;16.30;1.00;;;;;;4823057;29;20081;-57
2022/11/29 12:44:21;;;;;;;1.52;0.80;;;16.30;1.00;;;;;;4806634;29;20061;-57
2022/11/29 12:47:01;;;;;;;3.97;0.82;;;16.30;1.00;;;;;;4823156;29;20078;-56
2022/11/29 12:50:10;;;;;;;1.58;0.68;;;16.30;1.00;;;;;;4822851;29;20509;-57
2022/11/29 12:52:49;;;;;;;4.38;1.02;;;16.30;1.00;;;;;;4823003;29;20069;-57
2022/11/29 12:55:25;;;;;;;2.30;0.68;;;16.30;1.00;;;;;;4823029;29;20054;-55
2022/11/29 12:58:00;;;;;;;3.35;0.93;;;16.30;1.00;;;;;;4806814;29;20080;-57
2022/11/29 13:00:51;;;;;;;2.35;1.30;;;16.30;1.00;;;;;;4822894;29;20042;-57
2022/11/29 13:03:41;;;;;;;2.45;0.70;;;16.30;1.00;;;;;;4822577;29;20062;-57
2022/11/29 13:06:27;;;;;;;2.97;1.00;;;16.30;1.00;;;;;;4822855;29;20047;-57
2022/11/29 13:09:29;;;;;;;2.08;0.80;;;16.30;1.00;;;;;;4822954;29;20499;-57
2022/11/29 13:12:05;;;;;;;2.65;1.02;;;16.20;1.00;;;;;;4821017;29;20070;-57
2022/11/29 13:14:43;;;;;;;1.75;0.57;;;16.20;1.00;;;;;;4822758;29;20043;-56
2022/11/29 13:17:26;;;;;;;2.20;1.00;;;16.20;1.00;;;;;;4822778;29;20046;-57
2022/11/29 13:19:58;;;;;;;1.73;0.98;;;16.20;1.00;;;;;;4823015;29;20085;-57
2022/11/29 13:22:39;;;;;;;2.72;1.10;;;16.20;1.00;;;;;;4822753;29;20125;-57
2022/11/29 13:25:29;;;;;;;3.17;1.05;;;16.20;1.00;;;;;;4822642;29;20472;-57
2022/11/29 13:28:06;;;;;;;2.35;0.68;;;16.20;1.00;;;;;;4822727;29;20503;-57
2022/11/29 13:30:34;;;;;;;2.03;0.88;;;16.20;1.00;;;;;;4822685;29;20095;-57
2022/11/29 13:33:22;;;;;;;2.40;0.90;;;16.20;1.00;;;;;;4822461;29;20058;-57
2022/11/29 13:36:15;;;;;;;3.58;0.70;;;16.20;1.00;;;;;;4822698;29;20060;-57
2022/11/29 13:39:02;;;;;;;2.97;0.80;;;16.20;1.00;;;;;;4822871;29;20054;-57
2022/11/29 13:42:08;;;;;;;3.45;0.77;;;16.20;1.00;;;;;;4822584;29;20050;-57
2022/11/29 13:44:44;;;;;;;2.35;1.48;;;16.20;1.00;;;;;;4822895;29;20103;-57
2022/11/29 13:47:14;;;;;;;2.40;0.75;;;16.20;1.00;;;;;;4822990;29;20115;-56
2022/11/29 13:49:53;;;;;;;5.30;0.90;;;16.20;1.00;;;;;;4826043;29;20053;-56
2022/11/29 13:52:35;;;;;;;2.17;0.85;;;16.20;1.00;;;;;;4825546;29;20046;-55
2022/11/29 13:55:13;;;;;;;2.30;0.70;;;16.20;1.00;;;;;;4825912;29;20457;-58
2022/11/29 13:57:53;;;;;;;1.17;0.60;;;16.20;1.00;;;;;;4825756;29;20225;-59
2022/11/29 14:00:42;;;;;;;3.95;2.20;;;16.20;1.00;;;;;;4825344;29;20050;-57
2022/11/29 14:03:22;;;;;;;2.67;1.20;;;16.20;1.00;;;;;;4825222;29;20070;-58
2022/11/29 14:05:50;;;;;;;2.55;0.80;;;16.20;1.00;;;;;;4825326;29;20456;-58
2022/11/29 14:08:46;;;;;;;2.78;0.77;;;16.10;1.00;;;;;;4825514;29;20103;-57